Aranspass, Texas
Current Conditions -  °F | °C
As of 9:55 PM on Thursday 27 Nov 2014 (Local Time) from KTFP Reporting Station
Clear Clear  
Wind Chill: 59°   Ceiling: Unl
Heat Index: 59°   Visibility: 10mi
Dew Point: 54°   Wind: 6mph
Humidity: 83%   Direction: 90°E
Pressure: 30.39"   Gusts: NA
Location:  27.9399°N, 97.1805°W
Report Text: KTFP 280355Z AUTO 09005KT 10SM CLR 15/12 A3039 RMK AO2 T01520124
Loading
Personal Weather Stations






























Interactive Weather Map New forecast layout! Learn more

10-Day Weather Forecast

Advertisements
Track Severe Weather on mobile